sensor_id;sensor_type;location;lat;lon;timestamp;P1;durP1;ratioP1;P2;durP2;ratioP2
19223;SDS011;9746;47.180;9.776;2024-01-30T06:03:41;0.40;;;0.40;;
19223;SDS011;9746;47.180;9.776;2024-01-30T06:06:09;0.40;;;0.40;;
19223;SDS011;9746;47.180;9.776;2024-01-30T06:11:26;0.30;;;0.30;;
19223;SDS011;9746;47.180;9.776;2024-01-30T06:14:07;0.40;;;0.40;;
19223;SDS011;9746;47.180;9.776;2024-01-30T06:16:36;0.40;;;0.40;;
19223;SDS011;9746;47.180;9.776;2024-01-30T06:19:05;0.30;;;0.30;;
19223;SDS011;9746;47.180;9.776;2024-01-30T06:21:33;0.40;;;0.40;;
19223;SDS011;9746;47.180;9.776;2024-01-30T06:24:02;0.30;;;0.30;;
19223;SDS011;9746;47.180;9.776;2024-01-30T06:26:30;0.40;;;0.40;;
19223;SDS011;9746;47.180;9.776;2024-01-30T06:29:05;0.30;;;0.30;;
19223;SDS011;9746;47.180;9.776;2024-01-30T06:31:32;0.30;;;0.30;;
19223;SDS011;9746;47.180;9.776;2024-01-30T06:34:08;0.30;;;0.30;;
19223;SDS011;9746;47.180;9.776;2024-01-30T06:36:37;0.30;;;0.30;;
19223;SDS011;9746;47.180;9.776;2024-01-30T06:39:06;0.30;;;0.30;;
19223;SDS011;9746;47.180;9.776;2024-01-30T06:41:34;0.40;;;0.40;;
19223;SDS011;9746;47.180;9.776;2024-01-30T06:44:02;0.30;;;0.30;;
19223;SDS011;9746;47.180;9.776;2024-01-30T06:46:31;0.30;;;0.30;;
19223;SDS011;9746;47.180;9.776;2024-01-30T06:48:59;0.23;;;0.23;;
19223;SDS011;9746;47.180;9.776;2024-01-30T06:51:28;0.30;;;0.30;;
19223;SDS011;9746;47.180;9.776;2024-01-30T06:53:56;0.40;;;0.40;;
19223;SDS011;9746;47.180;9.776;2024-01-30T06:56:23;0.40;;;0.40;;
19223;SDS011;9746;47.180;9.776;2024-01-30T06:58:51;0.30;;;0.30;;
19223;SDS011;9746;47.180;9.776;2024-01-30T07:01:18;0.30;;;0.30;;
19223;SDS011;9746;47.180;9.776;2024-01-30T07:03:46;0.30;;;0.30;;
19223;SDS011;9746;47.180;9.776;2024-01-30T07:06:13;0.37;;;0.37;;
19223;SDS011;9746;47.180;9.776;2024-01-30T07:08:42;0.30;;;0.30;;
19223;SDS011;9746;47.180;9.776;2024-01-30T07:11:09;0.30;;;0.30;;
19223;SDS011;9746;47.180;9.776;2024-01-30T07:13:37;0.30;;;0.30;;
19223;SDS011;9746;47.180;9.776;2024-01-30T07:16:06;0.30;;;0.30;;
19223;SDS011;9746;47.180;9.776;2024-01-30T07:18:33;0.30;;;0.30;;
19223;SDS011;9746;47.180;9.776;2024-01-30T07:21:01;0.30;;;0.30;;
19223;SDS011;9746;47.180;9.776;2024-01-30T07:23:28;0.30;;;0.30;;
19223;SDS011;9746;47.180;9.776;2024-01-30T07:26:05;0.40;;;0.40;;
19223;SDS011;9746;47.180;9.776;2024-01-30T07:28:33;0.40;;;0.40;;
19223;SDS011;9746;47.180;9.776;2024-01-30T07:31:01;0.30;;;0.30;;
19223;SDS011;9746;47.180;9.776;2024-01-30T07:33:28;0.30;;;0.30;;
19223;SDS011;9746;47.180;9.776;2024-01-30T07:35:56;0.50;;;0.50;;
19223;SDS011;9746;47.180;9.776;2024-01-30T07:38:23;0.40;;;0.40;;
19223;SDS011;9746;47.180;9.776;2024-01-30T07:40:51;0.30;;;0.30;;
19223;SDS011;9746;47.180;9.776;2024-01-30T07:43:20;0.40;;;0.40;;
19223;SDS011;9746;47.180;9.776;2024-01-30T07:45:47;0.30;;;0.30;;
19223;SDS011;9746;47.180;9.776;2024-01-30T07:48:15;0.30;;;0.30;;
19223;SDS011;9746;47.180;9.776;2024-01-30T07:50:42;0.30;;;0.30;;
19223;SDS011;9746;47.180;9.776;2024-01-30T07:53:10;0.40;;;0.40;;
19223;SDS011;9746;47.180;9.776;2024-01-30T07:55:37;0.30;;;0.30;;
19223;SDS011;9746;47.180;9.776;2024-01-30T07:58:16;0.40;;;0.40;;
19223;SDS011;9746;47.180;9.776;2024-01-30T08:00:46;0.30;;;0.30;;
19223;SDS011;9746;47.180;9.776;2024-01-30T08:03:13;0.40;;;0.40;;
19223;SDS011;9746;47.180;9.776;2024-01-30T08:05:41;0.40;;;0.40;;
19223;SDS011;9746;47.180;9.776;2024-01-30T08:08:09;0.33;;;0.33;;
19223;SDS011;9746;47.180;9.776;2024-01-30T08:10:36;0.40;;;0.40;;
19223;SDS011;9746;47.180;9.776;2024-01-30T08:13:03;0.40;;;0.40;;
19223;SDS011;9746;47.180;9.776;2024-01-30T08:15:32;0.40;;;0.40;;
19223;SDS011;9746;47.180;9.776;2024-01-30T08:18:01;0.30;;;0.30;;
19223;SDS011;9746;47.180;9.776;2024-01-30T08:20:29;0.30;;;0.30;;
19223;SDS011;9746;47.180;9.776;2024-01-30T08:22:56;0.20;;;0.20;;
19223;SDS011;9746;47.180;9.776;2024-01-30T08:25:25;0.30;;;0.30;;
19223;SDS011;9746;47.180;9.776;2024-01-30T08:27:52;0.30;;;0.30;;
19223;SDS011;9746;47.180;9.776;2024-01-30T08:30:21;0.30;;;0.30;;
19223;SDS011;9746;47.180;9.776;2024-01-30T08:32:48;0.30;;;0.30;;
19223;SDS011;9746;47.180;9.776;2024-01-30T08:35:17;0.30;;;0.30;;
19223;SDS011;9746;47.180;9.776;2024-01-30T08:37:44;0.30;;;0.30;;
19223;SDS011;9746;47.180;9.776;2024-01-30T08:40:13;0.30;;;0.30;;
19223;SDS011;9746;47.180;9.776;2024-01-30T08:42:40;0.23;;;0.23;;
19223;SDS011;9746;47.180;9.776;2024-01-30T08:45:08;0.30;;;0.30;;
19223;SDS011;9746;47.180;9.776;2024-01-30T08:47:36;0.20;;;0.20;;
19223;SDS011;9746;47.180;9.776;2024-01-30T08:50:05;0.30;;;0.30;;
19223;SDS011;9746;47.180;9.776;2024-01-30T08:52:35;0.20;;;0.20;;
19223;SDS011;9746;47.180;9.776;2024-01-30T08:55:03;0.20;;;0.20;;
19223;SDS011;9746;47.180;9.776;2024-01-30T08:57:31;0.20;;;0.20;;
19223;SDS011;9746;47.180;9.776;2024-01-30T08:59:59;0.30;;;0.30;;
19223;SDS011;9746;47.180;9.776;2024-01-30T09:02:31;0.20;;;0.20;;
19223;SDS011;9746;47.180;9.776;2024-01-30T09:04:59;0.27;;;0.27;;
19223;SDS011;9746;47.180;9.776;2024-01-30T09:07:27;0.20;;;0.20;;
19223;SDS011;9746;47.180;9.776;2024-01-30T09:09:56;0.20;;;0.20;;
19223;SDS011;9746;47.180;9.776;2024-01-30T09:12:24;0.30;;;0.30;;
19223;SDS011;9746;47.180;9.776;2024-01-30T09:14:51;0.20;;;0.20;;
19223;SDS011;9746;47.180;9.776;2024-01-30T09:17:18;0.27;;;0.27;;
19223;SDS011;9746;47.180;9.776;2024-01-30T09:19:46;0.27;;;0.27;;
19223;SDS011;9746;47.180;9.776;2024-01-30T09:22:13;0.20;;;0.20;;
19223;SDS011;9746;47.180;9.776;2024-01-30T09:24:42;0.20;;;0.20;;
19223;SDS011;9746;47.180;9.776;2024-01-30T09:27:11;0.30;;;0.30;;
19223;SDS011;9746;47.180;9.776;2024-01-30T09:29:38;0.30;;;0.30;;
19223;SDS011;9746;47.180;9.776;2024-01-30T09:32:06;0.20;;;0.20;;
19223;SDS011;9746;47.180;9.776;2024-01-30T09:34:34;0.30;;;0.30;;
19223;SDS011;9746;47.180;9.776;2024-01-30T09:37:04;0.20;;;0.20;;
19223;SDS011;9746;47.180;9.776;2024-01-30T09:39:32;0.30;;;0.30;;
19223;SDS011;9746;47.180;9.776;2024-01-30T09:42:00;0.20;;;0.20;;
19223;SDS011;9746;47.180;9.776;2024-01-30T09:44:34;0.20;;;0.20;;
19223;SDS011;9746;47.180;9.776;2024-01-30T09:47:04;0.20;;;0.20;;
19223;SDS011;9746;47.180;9.776;2024-01-30T09:49:31;0.20;;;0.20;;
19223;SDS011;9746;47.180;9.776;2024-01-30T09:51:59;0.20;;;0.20;;
19223;SDS011;9746;47.180;9.776;2024-01-30T09:54:28;0.20;;;0.20;;
19223;SDS011;9746;47.180;9.776;2024-01-30T09:56:57;0.20;;;0.20;;
19223;SDS011;9746;47.180;9.776;2024-01-30T09:59:24;0.20;;;0.20;;
19223;SDS011;9746;47.180;9.776;2024-01-30T10:01:53;0.20;;;0.20;;
19223;SDS011;9746;47.180;9.776;2024-01-30T10:04:22;0.20;;;0.20;;
19223;SDS011;9746;47.180;9.776;2024-01-30T10:06:49;0.20;;;0.20;;
19223;SDS011;9746;47.180;9.776;2024-01-30T10:09:17;0.20;;;0.20;;
19223;SDS011;9746;47.180;9.776;2024-01-30T10:11:45;0.20;;;0.20;;
19223;SDS011;9746;47.180;9.776;2024-01-30T10:14:13;0.20;;;0.20;;
19223;SDS011;9746;47.180;9.776;2024-01-30T10:16:42;0.20;;;0.20;;
19223;SDS011;9746;47.180;9.776;2024-01-30T10:19:13;0.20;;;0.20;;
19223;SDS011;9746;47.180;9.776;2024-01-30T10:21:40;0.20;;;0.20;;
19223;SDS011;9746;47.180;9.776;2024-01-30T10:24:07;0.20;;;0.20;;
19223;SDS011;9746;47.180;9.776;2024-01-30T10:26:38;0.20;;;0.20;;
19223;SDS011;9746;47.180;9.776;2024-01-30T10:29:05;0.20;;;0.20;;
19223;SDS011;9746;47.180;9.776;2024-01-30T10:31:32;0.20;;;0.20;;
19223;SDS011;9746;47.180;9.776;2024-01-30T10:34:00;0.10;;;0.10;;
19223;SDS011;9746;47.180;9.776;2024-01-30T10:36:29;0.20;;;0.20;;
19223;SDS011;9746;47.180;9.776;2024-01-30T10:38:59;0.20;;;0.20;;
19223;SDS011;9746;47.180;9.776;2024-01-30T10:41:27;0.20;;;0.20;;
19223;SDS011;9746;47.180;9.776;2024-01-30T10:44:06;0.20;;;0.20;;
19223;SDS011;9746;47.180;9.776;2024-01-30T10:46:37;0.20;;;0.20;;
19223;SDS011;9746;47.180;9.776;2024-01-30T10:49:05;0.20;;;0.20;;
19223;SDS011;9746;47.180;9.776;2024-01-30T10:51:35;0.20;;;0.20;;
19223;SDS011;9746;47.180;9.776;2024-01-30T10:54:05;0.20;;;0.20;;
19223;SDS011;9746;47.180;9.776;2024-01-30T10:56:33;0.20;;;0.20;;
19223;SDS011;9746;47.180;9.776;2024-01-30T10:59:02;0.17;;;0.17;;
19223;SDS011;9746;47.180;9.776;2024-01-30T11:01:30;0.15;;;0.15;;
19223;SDS011;9746;47.180;9.776;2024-01-30T11:03:58;0.10;;;0.10;;
19223;SDS011;9746;47.180;9.776;2024-01-30T11:06:25;0.20;;;0.20;;
19223;SDS011;9746;47.180;9.776;2024-01-30T11:09:03;0.13;;;0.13;;
19223;SDS011;9746;47.180;9.776;2024-01-30T11:11:47;0.20;;;0.20;;
19223;SDS011;9746;47.180;9.776;2024-01-30T11:14:15;0.13;;;0.13;;
19223;SDS011;9746;47.180;9.776;2024-01-30T11:16:43;0.20;;;0.20;;
19223;SDS011;9746;47.180;9.776;2024-01-30T11:19:10;0.20;;;0.20;;
19223;SDS011;9746;47.180;9.776;2024-01-30T11:21:41;0.10;;;0.10;;
19223;SDS011;9746;47.180;9.776;2024-01-30T11:24:10;0.20;;;0.20;;
19223;SDS011;9746;47.180;9.776;2024-01-30T11:26:39;0.20;;;0.20;;
19223;SDS011;9746;47.180;9.776;2024-01-30T11:29:08;0.20;;;0.20;;
19223;SDS011;9746;47.180;9.776;2024-01-30T11:31:36;0.20;;;0.20;;
19223;SDS011;9746;47.180;9.776;2024-01-30T11:34:03;0.20;;;0.20;;
19223;SDS011;9746;47.180;9.776;2024-01-30T11:36:31;0.20;;;0.20;;
19223;SDS011;9746;47.180;9.776;2024-01-30T11:39:02;0.20;;;0.20;;
19223;SDS011;9746;47.180;9.776;2024-01-30T11:41:33;0.20;;;0.20;;
19223;SDS011;9746;47.180;9.776;2024-01-30T11:44:03;0.20;;;0.20;;
19223;SDS011;9746;47.180;9.776;2024-01-30T11:49:02;0.20;;;0.20;;
19223;SDS011;9746;47.180;9.776;2024-01-30T11:51:31;0.20;;;0.20;;
19223;SDS011;9746;47.180;9.776;2024-01-30T11:53:59;0.20;;;0.20;;
19223;SDS011;9746;47.180;9.776;2024-01-30T11:56:29;0.20;;;0.20;;
19223;SDS011;9746;47.180;9.776;2024-01-30T11:58:58;0.15;;;0.15;;
19223;SDS011;9746;47.180;9.776;2024-01-30T12:01:28;0.20;;;0.20;;
19223;SDS011;9746;47.180;9.776;2024-01-30T12:03:56;0.20;;;0.20;;
19223;SDS011;9746;47.180;9.776;2024-01-30T12:06:31;0.17;;;0.17;;
19223;SDS011;9746;47.180;9.776;2024-01-30T12:08:59;0.20;;;0.20;;
19223;SDS011;9746;47.180;9.776;2024-01-30T12:11:29;0.13;;;0.13;;
19223;SDS011;9746;47.180;9.776;2024-01-30T12:13:58;0.20;;;0.20;;
19223;SDS011;9746;47.180;9.776;2024-01-30T12:16:26;0.20;;;0.20;;
19223;SDS011;9746;47.180;9.776;2024-01-30T12:18:59;0.13;;;0.13;;
19223;SDS011;9746;47.180;9.776;2024-01-30T12:21:28;0.20;;;0.20;;
19223;SDS011;9746;47.180;9.776;2024-01-30T12:23:56;0.10;;;0.10;;
19223;SDS011;9746;47.180;9.776;2024-01-30T12:29:00;0.10;;;0.10;;
19223;SDS011;9746;47.180;9.776;2024-01-30T12:31:31;0.10;;;0.10;;
19223;SDS011;9746;47.180;9.776;2024-01-30T12:33:59;0.10;;;0.10;;
19223;SDS011;9746;47.180;9.776;2024-01-30T12:36:28;0.10;;;0.10;;
19223;SDS011;9746;47.180;9.776;2024-01-30T12:38:56;0.10;;;0.10;;
19223;SDS011;9746;47.180;9.776;2024-01-30T12:41:27;0.10;;;0.10;;
19223;SDS011;9746;47.180;9.776;2024-01-30T12:43:55;0.10;;;0.10;;
19223;SDS011;9746;47.180;9.776;2024-01-30T12:46:29;0.10;;;0.10;;
19223;SDS011;9746;47.180;9.776;2024-01-30T12:48:57;0.10;;;0.10;;
19223;SDS011;9746;47.180;9.776;2024-01-30T12:51:35;0.10;;;0.10;;
19223;SDS011;9746;47.180;9.776;2024-01-30T12:54:07;0.10;;;0.10;;
19223;SDS011;9746;47.180;9.776;2024-01-30T12:59:08;0.20;;;0.20;;
19223;SDS011;9746;47.180;9.776;2024-01-30T13:01:41;0.20;;;0.20;;
19223;SDS011;9746;47.180;9.776;2024-01-30T13:04:09;0.10;;;0.10;;
19223;SDS011;9746;47.180;9.776;2024-01-30T13:06:37;0.10;;;0.10;;
19223;SDS011;9746;47.180;9.776;2024-01-30T13:09:05;0.10;;;0.10;;
19223;SDS011;9746;47.180;9.776;2024-01-30T13:11:36;0.10;;;0.10;;
19223;SDS011;9746;47.180;9.776;2024-01-30T13:14:03;0.10;;;0.10;;
19223;SDS011;9746;47.180;9.776;2024-01-30T13:19:05;0.10;;;0.10;;
19223;SDS011;9746;47.180;9.776;2024-01-30T13:21:34;0.10;;;0.10;;
19223;SDS011;9746;47.180;9.776;2024-01-30T13:24:02;0.10;;;0.10;;
19223;SDS011;9746;47.180;9.776;2024-01-30T13:26:32;0.10;;;0.10;;
19223;SDS011;9746;47.180;9.776;2024-01-30T13:29:01;0.10;;;0.10;;
19223;SDS011;9746;47.180;9.776;2024-01-30T13:31:32;0.10;;;0.10;;
19223;SDS011;9746;47.180;9.776;2024-01-30T13:34:01;0.10;;;0.10;;
19223;SDS011;9746;47.180;9.776;2024-01-30T13:36:33;0.10;;;0.10;;
19223;SDS011;9746;47.180;9.776;2024-01-30T13:39:01;0.10;;;0.10;;
19223;SDS011;9746;47.180;9.776;2024-01-30T13:41:37;0.10;;;0.10;;
19223;SDS011;9746;47.180;9.776;2024-01-30T13:44:04;0.10;;;0.10;;
19223;SDS011;9746;47.180;9.776;2024-01-30T13:49:12;0.10;;;0.10;;
19223;SDS011;9746;47.180;9.776;2024-01-30T13:51:49;0.10;;;0.10;;
19223;SDS011;9746;47.180;9.776;2024-01-30T13:54:17;0.10;;;0.10;;
19223;SDS011;9746;47.180;9.776;2024-01-30T13:56:44;0.10;;;0.10;;
19223;SDS011;9746;47.180;9.776;2024-01-30T13:59:12;0.10;;;0.10;;
19223;SDS011;9746;47.180;9.776;2024-01-30T14:01:39;0.10;;;0.10;;
19223;SDS011;9746;47.180;9.776;2024-01-30T14:04:07;0.05;;;0.05;;
19223;SDS011;9746;47.180;9.776;2024-01-30T14:06:36;0.15;;;0.15;;
19223;SDS011;9746;47.180;9.776;2024-01-30T14:09:05;0.10;;;0.10;;
19223;SDS011;9746;47.180;9.776;2024-01-30T14:11:32;0.10;;;0.10;;
19223;SDS011;9746;47.180;9.776;2024-01-30T14:14:00;0.10;;;0.10;;
19223;SDS011;9746;47.180;9.776;2024-01-30T14:16:27;0.10;;;0.10;;
19223;SDS011;9746;47.180;9.776;2024-01-30T14:18:55;0.10;;;0.10;;
19223;SDS011;9746;47.180;9.776;2024-01-30T14:21:22;0.20;;;0.20;;
19223;SDS011;9746;47.180;9.776;2024-01-30T14:23:50;0.10;;;0.10;;
19223;SDS011;9746;47.180;9.776;2024-01-30T14:26:19;0.10;;;0.10;;
19223;SDS011;9746;47.180;9.776;2024-01-30T14:28:47;0.20;;;0.20;;
19223;SDS011;9746;47.180;9.776;2024-01-30T14:31:15;0.10;;;0.10;;
19223;SDS011;9746;47.180;9.776;2024-01-30T14:33:51;0.20;;;0.20;;
19223;SDS011;9746;47.180;9.776;2024-01-30T14:36:18;0.20;;;0.20;;
19223;SDS011;9746;47.180;9.776;2024-01-30T14:42:02;0.20;;;0.20;;
19223;SDS011;9746;47.180;9.776;2024-01-30T14:44:30;0.20;;;0.20;;
19223;SDS011;9746;47.180;9.776;2024-01-30T14:46:59;0.17;;;0.17;;
19223;SDS011;9746;47.180;9.776;2024-01-30T14:49:27;0.20;;;0.20;;
19223;SDS011;9746;47.180;9.776;2024-01-30T14:51:56;0.20;;;0.20;;
19223;SDS011;9746;47.180;9.776;2024-01-30T14:54:24;0.20;;;0.20;;
19223;SDS011;9746;47.180;9.776;2024-01-30T14:56:51;0.20;;;0.20;;
19223;SDS011;9746;47.180;9.776;2024-01-30T14:59:20;0.20;;;0.20;;
19223;SDS011;9746;47.180;9.776;2024-01-30T15:01:50;0.20;;;0.20;;
19223;SDS011;9746;47.180;9.776;2024-01-30T15:04:18;0.10;;;0.10;;
19223;SDS011;9746;47.180;9.776;2024-01-30T15:06:45;0.20;;;0.20;;
19223;SDS011;9746;47.180;9.776;2024-01-30T15:09:16;0.20;;;0.20;;
19223;SDS011;9746;47.180;9.776;2024-01-30T15:11:43;0.20;;;0.20;;
19223;SDS011;9746;47.180;9.776;2024-01-30T15:14:17;0.20;;;0.20;;
19223;SDS011;9746;47.180;9.776;2024-01-30T15:16:46;0.20;;;0.20;;
19223;SDS011;9746;47.180;9.776;2024-01-30T15:21:44;0.20;;;0.20;;
19223;SDS011;9746;47.180;9.776;2024-01-30T15:24:19;0.20;;;0.20;;
19223;SDS011;9746;47.180;9.776;2024-01-30T15:26:49;0.20;;;0.20;;
19223;SDS011;9746;47.180;9.776;2024-01-30T15:29:18;0.20;;;0.20;;
19223;SDS011;9746;47.180;9.776;2024-01-30T15:31:50;0.20;;;0.20;;
19223;SDS011;9746;47.180;9.776;2024-01-30T15:34:18;0.20;;;0.20;;
19223;SDS011;9746;47.180;9.776;2024-01-30T15:36:48;0.20;;;0.20;;
19223;SDS011;9746;47.180;9.776;2024-01-30T15:39:19;0.20;;;0.20;;
19223;SDS011;9746;47.180;9.776;2024-01-30T15:41:48;0.20;;;0.20;;
19223;SDS011;9746;47.180;9.776;2024-01-30T15:44:18;0.20;;;0.20;;
19223;SDS011;9746;47.180;9.776;2024-01-30T15:46:47;0.20;;;0.20;;
19223;SDS011;9746;47.180;9.776;2024-01-30T15:49:23;0.20;;;0.20;;
19223;SDS011;9746;47.180;9.776;2024-01-30T15:51:52;0.20;;;0.20;;
19223;SDS011;9746;47.180;9.776;2024-01-30T15:54:31;0.30;;;0.30;;
19223;SDS011;9746;47.180;9.776;2024-01-30T15:57:00;0.30;;;0.30;;
19223;SDS011;9746;47.180;9.776;2024-01-30T15:59:28;0.30;;;0.30;;
19223;SDS011;9746;47.180;9.776;2024-01-30T16:01:55;0.30;;;0.30;;
19223;SDS011;9746;47.180;9.776;2024-01-30T16:04:25;0.30;;;0.30;;
19223;SDS011;9746;47.180;9.776;2024-01-30T16:06:54;0.30;;;0.30;;
19223;SDS011;9746;47.180;9.776;2024-01-30T16:09:22;0.30;;;0.30;;
19223;SDS011;9746;47.180;9.776;2024-01-30T16:11:50;0.20;;;0.20;;
19223;SDS011;9746;47.180;9.776;2024-01-30T16:14:23;0.30;;;0.30;;
19223;SDS011;9746;47.180;9.776;2024-01-30T16:16:51;0.20;;;0.20;;
19223;SDS011;9746;47.180;9.776;2024-01-30T16:19:26;0.20;;;0.20;;
19223;SDS011;9746;47.180;9.776;2024-01-30T16:21:54;0.20;;;0.20;;
19223;SDS011;9746;47.180;9.776;2024-01-30T16:24:27;0.30;;;0.30;;
19223;SDS011;9746;47.180;9.776;2024-01-30T16:26:54;0.20;;;0.20;;
19223;SDS011;9746;47.180;9.776;2024-01-30T16:29:23;0.30;;;0.30;;
19223;SDS011;9746;47.180;9.776;2024-01-30T16:31:51;0.30;;;0.30;;
19223;SDS011;9746;47.180;9.776;2024-01-30T16:34:26;0.20;;;0.20;;
19223;SDS011;9746;47.180;9.776;2024-01-30T16:36:54;0.20;;;0.20;;
19223;SDS011;9746;47.180;9.776;2024-01-30T16:39:22;0.20;;;0.20;;
19223;SDS011;9746;47.180;9.776;2024-01-30T16:41:49;0.20;;;0.20;;
19223;SDS011;9746;47.180;9.776;2024-01-30T16:44:26;0.30;;;0.30;;
19223;SDS011;9746;47.180;9.776;2024-01-30T16:46:54;0.30;;;0.30;;
19223;SDS011;9746;47.180;9.776;2024-01-30T16:49:24;0.20;;;0.20;;
19223;SDS011;9746;47.180;9.776;2024-01-30T16:51:54;0.20;;;0.20;;
19223;SDS011;9746;47.180;9.776;2024-01-30T16:54:23;0.30;;;0.30;;
19223;SDS011;9746;47.180;9.776;2024-01-30T16:56:50;0.20;;;0.20;;
19223;SDS011;9746;47.180;9.776;2024-01-30T16:59:20;0.30;;;0.30;;
19223;SDS011;9746;47.180;9.776;2024-01-30T17:01:48;0.27;;;0.27;;
19223;SDS011;9746;47.180;9.776;2024-01-30T17:04:15;0.20;;;0.20;;
19223;SDS011;9746;47.180;9.776;2024-01-30T17:06:47;0.30;;;0.30;;
19223;SDS011;9746;47.180;9.776;2024-01-30T17:11:49;0.20;;;0.20;;
19223;SDS011;9746;47.180;9.776;2024-01-30T17:14:26;0.30;;;0.30;;
19223;SDS011;9746;47.180;9.776;2024-01-30T17:16:54;0.30;;;0.30;;
19223;SDS011;9746;47.180;9.776;2024-01-30T17:19:21;0.27;;;0.27;;
19223;SDS011;9746;47.180;9.776;2024-01-30T17:21:50;0.20;;;0.20;;
19223;SDS011;9746;47.180;9.776;2024-01-30T17:27:03;0.20;;;0.20;;
19223;SDS011;9746;47.180;9.776;2024-01-30T17:29:31;0.20;;;0.20;;
19223;SDS011;9746;47.180;9.776;2024-01-30T17:31:59;0.20;;;0.20;;
19223;SDS011;9746;47.180;9.776;2024-01-30T17:34:28;0.30;;;0.30;;
19223;SDS011;9746;47.180;9.776;2024-01-30T17:36:57;0.30;;;0.30;;
19223;SDS011;9746;47.180;9.776;2024-01-30T17:42:11;0.20;;;0.20;;
19223;SDS011;9746;47.180;9.776;2024-01-30T17:47:27;0.20;;;0.20;;
19223;SDS011;9746;47.180;9.776;2024-01-30T17:49:55;0.20;;;0.20;;
19223;SDS011;9746;47.180;9.776;2024-01-30T17:52:24;0.20;;;0.20;;
19223;SDS011;9746;47.180;9.776;2024-01-30T17:57:31;0.30;;;0.30;;
19223;SDS011;9746;47.180;9.776;2024-01-30T18:00:08;0.23;;;0.23;;
19223;SDS011;9746;47.180;9.776;2024-01-30T18:02:36;0.20;;;0.20;;
19223;SDS011;9746;47.180;9.776;2024-01-30T18:05:05;0.20;;;0.20;;
19223;SDS011;9746;47.180;9.776;2024-01-30T18:07:36;0.23;;;0.23;;
19223;SDS011;9746;47.180;9.776;2024-01-30T18:12:54;0.30;;;0.30;;
19223;SDS011;9746;47.180;9.776;2024-01-30T18:15:31;0.20;;;0.20;;
19223;SDS011;9746;47.180;9.776;2024-01-30T18:17:58;0.20;;;0.20;;
19223;SDS011;9746;47.180;9.776;2024-01-30T18:23:04;0.20;;;0.20;;
19223;SDS011;9746;47.180;9.776;2024-01-30T18:25:35;0.20;;;0.20;;
19223;SDS011;9746;47.180;9.776;2024-01-30T18:28:03;0.27;;;0.27;;
19223;SDS011;9746;47.180;9.776;2024-01-30T18:30:31;0.20;;;0.20;;
19223;SDS011;9746;47.180;9.776;2024-01-30T18:32:59;0.30;;;0.30;;
19223;SDS011;9746;47.180;9.776;2024-01-30T18:38:11;0.20;;;0.20;;
19223;SDS011;9746;47.180;9.776;2024-01-30T18:40:39;0.30;;;0.30;;
19223;SDS011;9746;47.180;9.776;2024-01-30T18:43:06;0.30;;;0.30;;
19223;SDS011;9746;47.180;9.776;2024-01-30T18:45:34;0.23;;;0.23;;
19223;SDS011;9746;47.180;9.776;2024-01-30T18:48:02;0.20;;;0.20;;
19223;SDS011;9746;47.180;9.776;2024-01-30T18:53:02;0.23;;;0.23;;
19223;SDS011;9746;47.180;9.776;2024-01-30T18:55:39;0.20;;;0.20;;
19223;SDS011;9746;47.180;9.776;2024-01-30T18:58:09;0.23;;;0.23;;
19223;SDS011;9746;47.180;9.776;2024-01-30T19:00:40;0.20;;;0.20;;
19223;SDS011;9746;47.180;9.776;2024-01-30T19:03:08;0.20;;;0.20;;
19223;SDS011;9746;47.180;9.776;2024-01-30T19:05:36;0.20;;;0.20;;
19223;SDS011;9746;47.180;9.776;2024-01-30T19:08:04;0.20;;;0.20;;
19223;SDS011;9746;47.180;9.776;2024-01-30T19:10:39;0.20;;;0.20;;
19223;SDS011;9746;47.180;9.776;2024-01-30T19:13:07;0.30;;;0.30;;
19223;SDS011;9746;47.180;9.776;2024-01-30T19:15:43;0.30;;;0.30;;
19223;SDS011;9746;47.180;9.776;2024-01-30T19:18:12;0.30;;;0.30;;
19223;SDS011;9746;47.180;9.776;2024-01-30T19:20:39;0.20;;;0.20;;
19223;SDS011;9746;47.180;9.776;2024-01-30T19:23:08;0.20;;;0.20;;
19223;SDS011;9746;47.180;9.776;2024-01-30T19:25:35;0.20;;;0.20;;
19223;SDS011;9746;47.180;9.776;2024-01-30T19:28:04;0.20;;;0.20;;
19223;SDS011;9746;47.180;9.776;2024-01-30T19:30:38;0.20;;;0.20;;
19223;SDS011;9746;47.180;9.776;2024-01-30T19:33:05;0.30;;;0.30;;
19223;SDS011;9746;47.180;9.776;2024-01-30T19:35:35;0.20;;;0.20;;
19223;SDS011;9746;47.180;9.776;2024-01-30T19:38:03;0.23;;;0.23;;
19223;SDS011;9746;47.180;9.776;2024-01-30T19:40:32;0.30;;;0.30;;
19223;SDS011;9746;47.180;9.776;2024-01-30T19:43:00;0.23;;;0.23;;
19223;SDS011;9746;47.180;9.776;2024-01-30T19:45:30;0.37;;;0.37;;
19223;SDS011;9746;47.180;9.776;2024-01-30T19:47:57;0.20;;;0.20;;
19223;SDS011;9746;47.180;9.776;2024-01-30T19:50:27;0.20;;;0.20;;
19223;SDS011;9746;47.180;9.776;2024-01-30T19:52:57;0.30;;;0.30;;
19223;SDS011;9746;47.180;9.776;2024-01-30T19:55:26;0.20;;;0.20;;
19223;SDS011;9746;47.180;9.776;2024-01-30T19:58:00;0.20;;;0.20;;
19223;SDS011;9746;47.180;9.776;2024-01-30T20:00:43;0.30;;;0.30;;
19223;SDS011;9746;47.180;9.776;2024-01-30T20:03:11;0.20;;;0.20;;
19223;SDS011;9746;47.180;9.776;2024-01-30T20:05:39;0.20;;;0.20;;
19223;SDS011;9746;47.180;9.776;2024-01-30T20:08:07;0.27;;;0.27;;
19223;SDS011;9746;47.180;9.776;2024-01-30T20:10:40;0.20;;;0.20;;
19223;SDS011;9746;47.180;9.776;2024-01-30T20:13:08;0.20;;;0.20;;
19223;SDS011;9746;47.180;9.776;2024-01-30T20:15:43;0.20;;;0.20;;
19223;SDS011;9746;47.180;9.776;2024-01-30T20:18:12;0.20;;;0.20;;
19223;SDS011;9746;47.180;9.776;2024-01-30T20:20:39;0.20;;;0.20;;
19223;SDS011;9746;47.180;9.776;2024-01-30T20:23:08;0.20;;;0.20;;
19223;SDS011;9746;47.180;9.776;2024-01-30T20:25:38;0.33;;;0.33;;
19223;SDS011;9746;47.180;9.776;2024-01-30T20:28:06;0.23;;;0.23;;
19223;SDS011;9746;47.180;9.776;2024-01-30T20:30:34;0.30;;;0.30;;
19223;SDS011;9746;47.180;9.776;2024-01-30T20:33:02;0.30;;;0.30;;
19223;SDS011;9746;47.180;9.776;2024-01-30T20:35:32;0.40;;;0.40;;
19223;SDS011;9746;47.180;9.776;2024-01-30T20:38:00;0.30;;;0.30;;
19223;SDS011;9746;47.180;9.776;2024-01-30T20:40:37;0.20;;;0.20;;
19223;SDS011;9746;47.180;9.776;2024-01-30T20:43:04;0.30;;;0.30;;
19223;SDS011;9746;47.180;9.776;2024-01-30T20:45:39;0.30;;;0.30;;
19223;SDS011;9746;47.180;9.776;2024-01-30T20:48:08;0.20;;;0.20;;
19223;SDS011;9746;47.180;9.776;2024-01-30T20:50:37;0.30;;;0.30;;
